Time;durP1;ratioP1;P1;durP2;ratioP2;P2;SDS_P1;SDS_P2;PMS_P1;PMS_P2;Temp;Humidity;BMP_temperature;BMP_pressure;BME280_temperature;BME280_humidity;BME280_pressure;Samples;Min_cycle;Max_cycle;Signal;HPM_P1;HPM_P2
2022/09/18 00:02:05;;;;;;;2.92;2.70;;;15.00;69.30;;;;;;5112462;28;20140;-53
2022/09/18 00:04:30;;;;;;;4.07;2.53;;;15.00;68.90;;;;;;5110520;28;20450;-52
2022/09/18 00:06:56;;;;;;;5.25;2.90;;;14.90;69.30;;;;;;5112287;28;20508;-55
2022/09/18 00:09:22;;;;;;;2.95;2.65;;;14.90;69.70;;;;;;5112175;28;20069;-55
2022/09/18 00:11:49;;;;;;;3.45;2.65;;;14.80;69.90;;;;;;5110433;28;20480;-55
2022/09/18 00:14:17;;;;;;;;;;;14.80;70.60;;;;;;5109959;28;20024;-59
2022/09/18 00:16:43;;;;;;;6.45;2.88;;;14.70;71.40;;;;;;5113402;28;19904;-57
2022/09/18 00:19:09;;;;;;;5.85;2.83;;;14.70;70.50;;;;;;5113319;28;20100;-57
2022/09/18 00:21:36;;;;;;;3.25;2.00;;;14.70;70.60;;;;;;5112983;28;20031;-56
2022/09/18 00:24:04;;;;;;;2.85;2.30;;;14.60;70.10;;;;;;5104119;22;20041;-63
2022/09/18 00:26:30;;;;;;;4.97;2.80;;;14.50;70.10;;;;;;5042368;28;20437;-63
2022/09/18 00:28:57;;;;;;;3.72;3.30;;;14.40;70.40;;;;;;5032772;28;20096;-63
2022/09/18 00:31:30;;;;;;;5.00;2.92;;;14.30;71.80;;;;;;5050062;28;20475;-63
2022/09/18 00:33:58;;;;;;;4.53;3.60;;;14.30;72.10;;;;;;5044912;28;20021;-63
2022/09/18 00:36:24;;;;;;;4.57;3.65;;;14.30;72.00;;;;;;5051263;28;20547;-65
2022/09/18 00:38:50;;;;;;;6.78;4.45;;;14.40;72.20;;;;;;5052188;28;20060;-63
2022/09/18 00:41:25;;;;;;;5.13;3.88;;;14.40;72.50;;;;;;5051345;28;20063;-63
2022/09/18 00:43:55;;;;;;;4.75;3.92;;;14.40;73.00;;;;;;5052244;28;20029;-63
2022/09/18 00:46:30;;;;;;;4.32;3.92;;;14.40;72.70;;;;;;5052360;28;20491;-63
2022/09/18 00:49:05;;;;;;;5.93;4.00;;;14.50;73.20;;;;;;5052644;28;20017;-63
2022/09/18 00:51:33;;;;;;;4.50;4.05;;;14.60;73.00;;;;;;5052223;28;20029;-63
2022/09/18 00:54:16;;;;;;;6.65;4.10;;;14.60;73.10;;;;;;5051765;28;20029;-63
2022/09/18 00:56:43;;;;;;;6.20;3.75;;;14.60;73.40;;;;;;5046034;28;20036;-63
2022/09/18 00:59:12;;;;;;;4.50;3.60;;;14.60;73.00;;;;;;5052377;28;20033;-63
2022/09/18 01:01:38;;;;;;;6.10;4.45;;;14.70;72.70;;;;;;5051969;28;20044;-63
2022/09/18 01:04:12;;;;;;;6.18;4.13;;;14.60;72.50;;;;;;5051472;28;20029;-63
2022/09/18 01:06:50;;;;;;;5.88;4.03;;;14.50;72.80;;;;;;5051423;28;20025;-63
2022/09/18 01:09:28;;;;;;;8.10;4.07;;;14.60;72.80;;;;;;5048286;28;20498;-63
2022/09/18 01:11:59;;;;;;;;;;;14.30;73.40;;;;;;5052310;28;20032;-63
2022/09/18 01:14:50;;;;;;;5.47;4.07;;;14.10;74.30;;;;;;5050264;28;19908;-63
2022/09/18 01:17:28;;;;;;;7.28;4.30;;;14.20;73.70;;;;;;5032251;28;20104;-63
2022/09/18 01:20:12;;;;;;;5.95;4.03;;;14.20;73.60;;;;;;5049027;28;20033;-63
2022/09/18 01:22:56;;;;;;;6.95;4.72;;;14.30;73.50;;;;;;5051727;28;20032;-63
2022/09/18 01:25:52;;;;;;;6.72;3.80;;;14.40;72.90;;;;;;5051443;28;20407;-63
2022/09/18 01:28:29;;;;;;;4.93;4.30;;;14.40;72.50;;;;;;5051773;28;20036;-63
2022/09/18 01:30:59;;;;;;;6.32;4.13;;;14.40;72.90;;;;;;5051593;28;20032;-63
2022/09/18 01:33:29;;;;;;;5.53;3.83;;;14.40;72.60;;;;;;5051455;28;20036;-63
2022/09/18 01:36:01;;;;;;;5.88;4.55;;;14.30;72.80;;;;;;5048611;28;20028;-63
2022/09/18 01:38:39;;;;;;;5.88;4.57;;;14.40;72.70;;;;;;5032432;28;20092;-63
2022/09/18 01:41:14;;;;;;;9.77;5.28;;;14.30;72.80;;;;;;5043588;28;20017;-63
2022/09/18 01:43:41;;;;;;;8.27;4.32;;;14.40;72.60;;;;;;5051130;28;20037;-63
2022/09/18 01:46:12;;;;;;;7.00;4.55;;;14.40;72.30;;;;;;5050978;28;20028;-63
2022/09/18 01:48:45;;;;;;;5.10;3.95;;;14.50;72.00;;;;;;5051616;28;20021;-63
2022/09/18 01:51:21;;;;;;;7.30;3.88;;;14.50;71.60;;;;;;5051681;28;20032;-63
2022/09/18 01:54:11;;;;;;;8.68;3.90;;;14.40;70.70;;;;;;5051116;28;20037;-63
2022/09/18 01:56:47;;;;;;;4.97;3.67;;;14.40;70.40;;;;;;5051408;28;20112;-63
2022/09/18 01:59:21;;;;;;;5.80;3.75;;;14.30;70.40;;;;;;5051390;28;20380;-63
2022/09/18 02:01:48;;;;;;;4.25;3.30;;;14.10;70.80;;;;;;5051236;28;20032;-63
2022/09/18 02:04:23;;;;;;;5.82;3.35;;;14.10;70.80;;;;;;5051357;28;20033;-63
2022/09/18 02:07:13;;;;;;;4.97;3.50;;;14.10;70.30;;;;;;5043567;28;20024;-63
2022/09/18 02:09:40;;;;;;;7.43;3.35;;;14.20;69.80;;;;;;5051258;28;20032;-63
2022/09/18 02:12:09;;;;;;;3.83;3.22;;;14.20;69.40;;;;;;5049952;28;20062;-63
2022/09/18 02:14:39;;;;;;;4.55;3.65;;;14.10;69.60;;;;;;5050048;28;20028;-63
2022/09/18 02:17:11;;;;;;;4.68;3.20;;;14.10;69.70;;;;;;5050195;28;20183;-63
2022/09/18 02:19:42;;;;;;;4.75;3.17;;;14.10;69.70;;;;;;5049521;28;20037;-63
2022/09/18 02:22:15;;;;;;;3.22;2.90;;;14.10;69.20;;;;;;5051259;28;20040;-63
2022/09/18 02:24:44;;;;;;;4.07;3.00;;;14.00;68.60;;;;;;5051151;28;20162;-63
2022/09/18 02:27:12;;;;;;;2.53;2.20;;;13.90;68.40;;;;;;5055133;28;20487;-63
2022/09/18 02:29:40;;;;;;;3.13;2.35;;;13.90;68.10;;;;;;5055116;28;20021;-63
2022/09/18 02:32:06;;;;;;;3.45;2.10;;;13.90;67.80;;;;;;5054993;28;20394;-63
2022/09/18 02:34:32;;;;;;;4.93;2.95;;;14.00;67.30;;;;;;5054527;28;20100;-63
2022/09/18 02:37:22;;;;;;;2.97;2.08;;;13.90;66.70;;;;;;5055158;28;20029;-63
2022/09/18 02:40:08;;;;;;;2.35;1.73;;;;;;;;;;5046737;28;20090;-63
2022/09/18 02:43:10;;;;;;;2.90;2.13;;;;;;;;;;5039425;28;20102;-63
2022/09/18 02:45:41;;;;;;;4.05;2.47;;;;;;;;;;4995984;28;20030;-63
2022/09/18 02:48:07;;;;;;;3.55;2.42;;;;;;;;;;5048030;28;20037;-63
2022/09/18 02:50:36;;;;;;;3.88;1.65;;;;;;;;;;5053295;28;20422;-63
2022/09/18 02:53:08;;;;;;;3.03;1.85;;;;;;;;;;5053123;28;20033;-63
2022/09/18 02:55:43;;;;;;;3.95;1.42;;;;;;;;;;5054475;28;20431;-63
2022/09/18 02:58:18;;;;;;;3.33;1.48;;;13.90;65.90;;;;;;5054718;28;20029;-63
2022/09/18 03:00:45;;;;;;;1.65;1.17;;;13.50;62.90;;;;;;5053123;28;20513;-63
2022/09/18 03:03:16;;;;;;;6.68;1.33;;;13.40;62.80;;;;;;5054093;28;20470;-63
2022/09/18 03:05:43;;;;;;;3.35;1.30;;;13.40;62.60;;;;;;5054391;28;20049;-64
2022/09/18 03:08:10;;;;;;;4.22;1.00;;;13.40;62.70;;;;;;5054302;28;20025;-63
2022/09/18 03:10:35;;;;;;;7.23;1.63;;;13.40;61.90;;;;;;5054234;28;20029;-63
2022/09/18 03:13:01;;;;;;;1.08;0.70;;;13.40;61.50;;;;;;5054141;28;20664;-62
2022/09/18 03:15:27;;;;;;;1.05;0.95;;;13.40;60.80;;;;;;5052452;28;20474;-63
2022/09/18 03:17:52;;;;;;;2.60;0.90;;;13.50;61.00;;;;;;5054329;28;20032;-63
2022/09/18 03:20:18;;;;;;;2.08;0.68;;;13.50;60.50;;;;;;5054307;28;20028;-62
2022/09/18 03:22:44;;;;;;;2.05;1.10;;;13.60;60.50;;;;;;5052743;28;20036;-64
2022/09/18 03:25:13;;;;;;;0.88;0.70;;;13.60;59.80;;;;;;5046666;28;20033;-62
2022/09/18 03:27:38;;;;;;;2.88;0.70;;;13.60;59.60;;;;;;5047223;28;20112;-63
2022/09/18 03:30:05;;;;;;;1.40;0.75;;;13.70;59.40;;;;;;5054050;28;20101;-65
2022/09/18 03:32:31;;;;;;;2.90;0.90;;;13.70;59.60;;;;;;5054041;28;20020;-62
2022/09/18 03:34:57;;;;;;;0.80;0.80;;;13.70;59.50;;;;;;5053923;28;20028;-63
2022/09/18 03:37:23;;;;;;;2.00;0.88;;;13.70;59.20;;;;;;5053455;28;20032;-63
2022/09/18 03:39:49;;;;;;;0.93;0.80;;;;;;;;;;5054001;28;20029;-63
2022/09/18 03:42:15;;;;;;;2.30;0.80;;;;;;;;;;5053462;28;20059;-63
2022/09/18 03:44:41;;;;;;;2.38;0.90;;;;;;;;;;5053456;28;20099;-63
2022/09/18 03:47:09;;;;;;;1.73;0.90;;;;;;;;;;5053600;28;20017;-63
2022/09/18 03:49:35;;;;;;;1.08;0.98;;;13.30;60.20;;;;;;5053814;28;20162;-63
2022/09/18 03:52:01;;;;;;;0.90;0.68;;;13.40;61.00;;;;;;5036648;28;20048;-63
2022/09/18 03:54:27;;;;;;;1.63;0.90;;;13.50;61.10;;;;;;5053316;28;20547;-64
2022/09/18 03:56:53;;;;;;;4.55;1.13;;;13.50;60.90;;;;;;5053420;28;20112;-63
2022/09/18 03:59:19;;;;;;;1.00;0.90;;;;;;;;;;5052797;28;20479;-63
2022/09/18 04:01:46;;;;;;;1.27;1.17;;;;;;;;;;5050971;28;20115;-63
2022/09/18 04:04:12;;;;;;;0.65;0.60;;;;;;;;;;5052414;28;20395;-63
2022/09/18 04:06:38;;;;;;;1.20;0.90;;;;;;;;;;5052808;28;20059;-63
2022/09/18 04:09:04;;;;;;;0.80;0.80;;;;;;;;;;5052985;28;20386;-63
2022/09/18 04:11:30;;;;;;;2.05;0.98;;;;;;;;;;5052525;28;20028;-63
2022/09/18 04:13:56;;;;;;;3.63;1.35;;;;;;;;;;5051570;28;20398;-63
2022/09/18 04:16:22;;;;;;;3.22;1.10;;;;;;;;;;5052105;28;20068;-63
2022/09/18 04:18:48;;;;;;;2.15;1.42;;;;;;;;;;5052800;28;20541;-63
2022/09/18 04:21:14;;;;;;;3.95;1.23;;;;;;;;;;5052289;28;20029;-63
2022/09/18 04:23:40;;;;;;;1.10;1.00;;;;;;;;;;5037873;28;20476;-63
2022/09/18 04:26:09;;;;;;;3.78;1.00;;;;;;;;;;5034895;28;20032;-63
2022/09/18 04:28:35;;;;;;;4.20;1.20;;;;;;;;;;5052521;28;20166;-63
2022/09/18 04:31:02;;;;;;;1.85;1.17;;;;;;;;;;5051763;28;20068;-62
2022/09/18 04:33:28;;;;;;;2.27;1.10;;;;;;;;;;5052633;28;20017;-63
2022/09/18 04:35:55;;;;;;;2.95;1.10;;;;;;;;;;5045455;28;20159;-65
2022/09/18 04:38:26;;;;;;;1.13;1.00;;;;;;;;;;5051948;28;20025;-63
2022/09/18 04:40:55;;;;;;;6.78;1.60;;;;;;;;;;5051678;28;20060;-63
2022/09/18 04:43:21;;;;;;;2.50;1.30;;;;;;;;;;5051438;28;20044;-65
2022/09/18 04:45:48;;;;;;;3.38;1.30;;;;;;;;;;5051985;28;20387;-63
2022/09/18 04:48:14;;;;;;;1.38;1.05;;;;;;;;;;5051397;28;20029;-64
2022/09/18 04:50:41;;;;;;;2.97;0.90;;;;;;;;;;5052015;28;20076;-63
2022/09/18 04:53:07;;;;;;;3.07;1.03;;;;;;;;;;5051486;28;20098;-63
2022/09/18 04:55:33;;;;;;;4.45;1.30;;;;;;;;;;5051859;28;20031;-63
2022/09/18 04:57:59;;;;;;;1.13;0.90;;;;;;;;;;5051614;28;20029;-63
2022/09/18 05:00:27;;;;;;;2.10;1.48;;;;;;;;;;5051854;28;20025;-62
2022/09/18 05:02:53;;;;;;;1.67;1.20;;;;;;;;;;5051359;28;20029;-63
2022/09/18 05:05:19;;;;;;;1.85;1.30;;;;;;;;;;5051268;28;20055;-62
2022/09/18 05:07:46;;;;;;;2.33;1.27;;;;;;;;;;5051658;28;20086;-62
2022/09/18 05:10:12;;;;;;;1.43;1.23;;;;;;;;;;5051593;28;20142;-63
2022/09/18 05:12:42;;;;;;;3.85;1.30;;;;;;;;;;5051019;28;20052;-63
2022/09/18 05:15:09;;;;;;;4.50;1.23;;;;;;;;;;5051029;28;20033;-62
2022/09/18 05:17:35;;;;;;;2.35;1.08;;;;;;;;;;5050808;28;20032;-50
2022/09/18 05:20:01;;;;;;;4.55;2.20;;;;;;;;;;5051164;28;20079;-51
2022/09/18 05:22:27;;;;;;;2.60;0.97;;;;;;;;;;5050309;28;20102;-53
2022/09/18 05:24:53;;;;;;;2.90;1.65;;;;;;;;;;5051170;28;20067;-52
2022/09/18 05:27:19;;;;;;;1.73;1.40;;;;;;;;;;5051614;28;20040;-51
2022/09/18 05:29:45;;;;;;;4.13;1.70;;;;;;;;;;5050722;28;20086;-50
2022/09/18 05:32:11;;;;;;;1.45;1.10;;;;;;;;;;5050927;28;20029;-50
2022/09/18 05:34:37;;;;;;;2.50;0.93;;;13.20;61.20;;;;;;5051363;28;20388;-59
2022/09/18 05:37:02;;;;;;;2.90;1.25;;;13.00;60.50;;;;;;5051268;28;20025;-59
2022/09/18 05:39:28;;;;;;;2.10;1.23;;;13.00;60.70;;;;;;5050762;28;20027;-59
2022/09/18 05:41:54;;;;;;;2.22;1.17;;;13.00;60.20;;;;;;5051396;28;20078;-64
2022/09/18 05:44:20;;;;;;;3.67;1.70;;;13.00;60.20;;;;;;5050638;28;20029;-64
2022/09/18 05:46:46;;;;;;;1.83;1.25;;;13.10;60.20;;;;;;5051576;28;20033;-64
2022/09/18 05:49:12;;;;;;;2.80;1.05;;;12.90;60.50;;;;;;5050843;28;20021;-63
2022/09/18 05:51:38;;;;;;;5.15;1.48;;;12.90;60.60;;;;;;5051024;28;20080;-62
2022/09/18 05:54:04;;;;;;;3.45;1.33;;;13.00;60.40;;;;;;5051014;28;20120;-63
2022/09/18 05:56:31;;;;;;;1.55;1.15;;;13.00;60.20;;;;;;5051257;28;20037;-63
2022/09/18 05:58:56;;;;;;;4.00;1.58;;;12.90;60.30;;;;;;5050426;28;20506;-64
2022/09/18 06:01:22;;;;;;;7.85;2.33;;;13.00;60.30;;;;;;5050827;28;20033;-43
2022/09/18 06:03:49;;;;;;;6.25;1.27;;;13.00;60.70;;;;;;5033146;28;20430;-44
2022/09/18 06:06:15;;;;;;;4.63;1.88;;;13.10;60.60;;;;;;5050941;28;20517;-43
2022/09/18 06:08:41;;;;;;;2.85;1.60;;;13.20;60.40;;;;;;5051029;28;20025;-43
2022/09/18 06:11:07;;;;;;;1.90;1.45;;;13.20;60.30;;;;;;5050939;28;20051;-42
2022/09/18 06:13:32;;;;;;;3.00;1.40;;;13.20;60.70;;;;;;5051983;28;20151;-42
2022/09/18 06:15:58;;;;;;;1.42;1.27;;;13.10;60.80;;;;;;5051102;28;20041;-43
2022/09/18 06:18:24;;;;;;;2.15;1.33;;;13.00;61.50;;;;;;5051110;28;20032;-43
2022/09/18 06:20:57;;;;;;;1.92;1.63;;;13.00;62.60;;;;;;5050971;28;20037;-62
2022/09/18 06:23:26;;;;;;;1.42;1.33;;;13.00;62.30;;;;;;5050823;28;20487;-62
2022/09/18 06:25:58;;;;;;;2.20;1.60;;;13.00;63.50;;;;;;5050016;28;20040;-62
2022/09/18 06:28:24;;;;;;;2.00;1.25;;;12.90;64.00;;;;;;5048888;28;20017;-61
2022/09/18 06:30:50;;;;;;;2.63;1.70;;;12.90;64.30;;;;;;5050305;28;20035;-61
2022/09/18 06:33:16;;;;;;;3.72;1.35;;;12.90;65.20;;;;;;5049931;28;20479;-60
2022/09/18 06:35:41;;;;;;;2.35;1.80;;;13.00;64.50;;;;;;5050495;28;20026;-62
2022/09/18 06:38:09;;;;;;;2.35;1.45;;;13.10;65.20;;;;;;5050453;28;20446;-62
2022/09/18 06:40:35;;;;;;;6.00;1.38;;;13.00;63.60;;;;;;5050297;28;20025;-61
2022/09/18 06:43:02;;;;;;;2.88;1.70;;;13.10;63.60;;;;;;5049645;28;20070;-62
2022/09/18 06:45:29;;;;;;;1.30;1.20;;;13.30;63.60;;;;;;5050426;28;20025;-63
2022/09/18 06:48:02;;;;;;;1.70;1.60;;;13.40;63.10;;;;;;5049280;28;20449;-61
2022/09/18 06:50:28;;;;;;;3.63;1.02;;;13.50;62.70;;;;;;5050600;28;20390;-61
2022/09/18 06:53:08;;;;;;;2.07;1.30;;;13.60;62.50;;;;;;5050129;28;20021;-60
2022/09/18 06:55:33;;;;;;;1.83;1.10;;;13.60;61.90;;;;;;5048807;28;20096;-61
2022/09/18 06:58:00;;;;;;;1.10;1.00;;;13.70;61.90;;;;;;5049034;28;20115;-60
2022/09/18 07:00:26;;;;;;;2.42;1.20;;;13.80;61.00;;;;;;5035383;28;20168;-60
2022/09/18 07:02:57;;;;;;;2.03;1.38;;;13.90;61.00;;;;;;5049056;28;20395;-60
2022/09/18 07:05:25;;;;;;;2.45;1.98;;;13.90;61.00;;;;;;5049083;28;20064;-61
2022/09/18 07:07:51;;;;;;;1.20;1.05;;;14.00;61.30;;;;;;5040284;28;20399;-60
2022/09/18 07:10:17;;;;;;;3.30;1.75;;;14.10;61.00;;;;;;5047153;28;20021;-60
2022/09/18 07:12:47;;;;;;;1.50;1.10;;;14.20;62.00;;;;;;5053619;28;20104;-60
2022/09/18 07:15:14;;;;;;;1.13;1.02;;;14.30;61.30;;;;;;5054393;28;20025;-59
2022/09/18 07:17:39;;;;;;;1.83;1.27;;;14.40;60.60;;;;;;5054017;28;20488;-60
2022/09/18 07:20:05;;;;;;;1.45;1.33;;;14.50;60.80;;;;;;5034784;28;20040;-60
2022/09/18 07:22:31;;;;;;;2.10;1.33;;;14.60;60.40;;;;;;5051775;28;20048;-60
2022/09/18 07:24:56;;;;;;;2.47;1.10;;;14.70;60.90;;;;;;5052801;28;20581;-60
2022/09/18 07:27:22;;;;;;;2.53;1.63;;;14.80;60.50;;;;;;5052969;28;20107;-60
2022/09/18 07:29:48;;;;;;;1.27;1.02;;;14.90;59.90;;;;;;5052693;28;20025;-60
2022/09/18 07:32:14;;;;;;;1.60;1.30;;;14.90;59.90;;;;;;5051794;28;20025;-61
2022/09/18 07:34:39;;;;;;;4.82;1.17;;;15.00;59.80;;;;;;5053432;28;20147;-60
2022/09/18 07:37:05;;;;;;;1.95;1.33;;;15.10;59.00;;;;;;5053743;28;20194;-60
2022/09/18 07:39:31;;;;;;;5.78;1.50;;;15.10;59.00;;;;;;5053146;28;20024;-61
2022/09/18 07:41:56;;;;;;;3.85;1.30;;;15.20;58.70;;;;;;5052587;28;20098;-61
2022/09/18 07:44:22;;;;;;;1.42;1.10;;;15.30;57.80;;;;;;5052078;28;20036;-61
2022/09/18 07:46:49;;;;;;;1.40;1.23;;;15.40;57.60;;;;;;5053204;28;20100;-60
2022/09/18 07:49:15;;;;;;;4.35;1.20;;;15.50;57.70;;;;;;5053707;28;20021;-60
2022/09/18 07:51:41;;;;;;;3.60;1.50;;;15.50;56.80;;;;;;5053562;28;20096;-61
2022/09/18 07:54:06;;;;;;;2.55;1.50;;;15.60;55.70;;;;;;5053174;28;20056;-61
2022/09/18 07:56:32;;;;;;;5.00;1.38;;;15.70;55.80;;;;;;5052567;28;20063;-60
2022/09/18 07:58:58;;;;;;;1.60;1.17;;;15.70;55.90;;;;;;5052989;28;20025;-60
2022/09/18 08:01:24;;;;;;;1.25;1.00;;;15.80;55.40;;;;;;5051651;28;20543;-60
2022/09/18 08:03:50;;;;;;;2.10;0.90;;;15.90;55.30;;;;;;5052488;28;20024;-61
2022/09/18 08:06:16;;;;;;;2.55;1.45;;;16.00;54.10;;;;;;5051256;28;20372;-61
2022/09/18 08:08:42;;;;;;;1.33;1.00;;;16.10;54.10;;;;;;5052465;28;20541;-61
2022/09/18 08:11:08;;;;;;;2.80;0.90;;;16.20;54.60;;;;;;5052992;28;20259;-60
2022/09/18 08:13:34;;;;;;;1.55;1.20;;;16.30;53.90;;;;;;5052610;28;20035;-61
2022/09/18 08:16:02;;;;;;;3.00;1.23;;;16.40;53.90;;;;;;5051953;28;20028;-61
2022/09/18 08:18:27;;;;;;;4.32;1.08;;;16.50;53.70;;;;;;5043386;28;20075;-61
2022/09/18 08:20:57;;;;;;;2.88;1.30;;;;;;;;;;5049131;28;20096;-61
2022/09/18 08:23:23;;;;;;;1.83;1.00;;;;;;;;;;5052005;28;20041;-61
2022/09/18 08:25:49;;;;;;;1.10;1.00;;;16.70;52.70;;;;;;5052879;28;20013;-61
2022/09/18 08:28:15;;;;;;;1.52;1.15;;;;;;;;;;5052336;28;20540;-61
2022/09/18 08:30:41;;;;;;;2.78;1.08;;;17.10;52.90;;;;;;5052195;28;20031;-61
2022/09/18 08:33:08;;;;;;;1.80;0.93;;;17.10;52.30;;;;;;5050517;28;20018;-61
2022/09/18 08:35:33;;;;;;;1.23;1.10;;;17.30;52.80;;;;;;5051953;28;20033;-62
2022/09/18 08:38:00;;;;;;;0.75;0.75;;;17.40;52.10;;;;;;5052334;28;20028;-61
2022/09/18 08:40:55;;;;;;;2.25;0.85;;;17.50;51.90;;;;;;5051953;28;20441;-61
2022/09/18 08:43:28;;;;;;;4.28;1.00;;;17.70;50.50;;;;;;5048175;28;20399;-61
2022/09/18 08:46:06;;;;;;;0.88;0.63;;;17.70;49.90;;;;;;5041034;28;20511;-61
2022/09/18 08:48:57;;;;;;;3.63;1.30;;;17.90;48.50;;;;;;5048540;28;20025;-61
2022/09/18 08:51:31;;;;;;;1.08;0.98;;;17.90;50.20;;;;;;5052332;28;20083;-60
2022/09/18 08:54:16;;;;;;;0.82;0.80;;;18.10;49.20;;;;;;5051438;28;20025;-60
2022/09/18 08:56:43;;;;;;;2.13;0.75;;;18.20;47.90;;;;;;5046399;28;20060;-61
2022/09/18 08:59:25;;;;;;;1.27;0.73;;;18.30;48.40;;;;;;5052268;28;20032;-61
2022/09/18 09:02:02;;;;;;;3.25;0.90;;;;;;;;;;5045814;28;20029;-61
2022/09/18 09:04:28;;;;;;;4.15;0.60;;;18.50;48.30;;;;;;5046691;28;20025;-61
2022/09/18 09:07:02;;;;;;;1.98;0.73;;;18.80;44.60;;;;;;5039182;28;20542;-61
2022/09/18 09:09:35;;;;;;;0.60;0.60;;;;;;;;;;5051195;28;20409;-61
2022/09/18 09:12:26;;;;;;;2.05;0.70;;;18.90;45.50;;;;;;5041726;28;20029;-60
2022/09/18 09:15:02;;;;;;;2.67;0.50;;;;;;;;;;5050357;28;20040;-61
2022/09/18 09:17:41;;;;;;;1.10;0.60;;;19.20;44.00;;;;;;5051428;28;20596;-61
2022/09/18 09:20:19;;;;;;;1.05;0.60;;;19.30;44.90;;;;;;5051539;28;20036;-61
2022/09/18 09:23:01;;;;;;;0.45;0.45;;;19.40;42.70;;;;;;5034938;28;20178;-60
2022/09/18 09:25:30;;;;;;;2.05;0.90;;;;;;;;;;5050915;28;20475;-60
2022/09/18 09:28:07;;;;;;;2.08;0.50;;;19.60;41.50;;;;;;5049477;28;20033;-60
2022/09/18 09:30:34;;;;;;;1.73;0.50;;;19.60;42.80;;;;;;5049298;28;20017;-60
2022/09/18 09:33:03;;;;;;;0.47;0.47;;;;;;;;;;5050325;28;20029;-61
2022/09/18 09:35:56;;;;;;;3.70;0.50;;;;;;;;;;5049840;28;20032;-60
2022/09/18 09:38:37;;;;;;;1.73;0.50;;;;;;;;;;5050012;28;20040;-60
2022/09/18 09:41:16;;;;;;;2.22;0.80;;;;;;;;;;5051335;28;20518;-59
2022/09/18 09:44:02;;;;;;;0.40;0.40;;;;;;;;;;5049947;28;20021;-59
2022/09/18 09:46:47;;;;;;;3.92;0.80;;;;;;;;;;5045528;28;20086;-61
2022/09/18 09:49:39;;;;;;;3.17;0.93;;;;;;;;;;5051113;28;20025;-60
2022/09/18 09:52:12;;;;;;;1.58;0.95;;;;;;;;;;5017410;28;20095;-61
2022/09/18 09:54:38;;;;;;;1.33;0.50;;;;;;;;;;5050486;28;20111;-61
2022/09/18 09:57:13;;;;;;;0.60;0.60;;;;;;;;;;5051339;28;20368;-61
2022/09/18 09:59:45;;;;;;;1.27;0.55;;;19.80;41.90;;;;;;5051061;28;20044;-61
2022/09/18 10:02:43;;;;;;;0.63;0.43;;;20.70;37.70;;;;;;5050863;28;20021;-61
2022/09/18 10:05:54;;;;;;;2.17;0.68;;;20.70;38.80;;;;;;5036080;28;20083;-61
2022/09/18 10:08:46;;;;;;;1.15;0.70;;;20.80;36.90;;;;;;5048240;28;20049;-60
2022/09/18 10:11:14;;;;;;;2.30;0.90;;;20.90;37.60;;;;;;5045572;28;20075;-60
2022/09/18 10:13:55;;;;;;;3.03;0.70;;;;;;;;;;5040845;28;20025;-61
2022/09/18 10:16:23;;;;;;;0.75;0.65;;;;;;;;;;5048303;28;20025;-61
2022/09/18 10:18:49;;;;;;;3.33;0.82;;;;;;;;;;5050345;28;20633;-61
2022/09/18 10:21:16;;;;;;;1.17;0.65;;;;;;;;;;5048855;28;20051;-61
2022/09/18 10:23:42;;;;;;;;;;;;;;;;;;5050429;28;20033;-60
2022/09/18 10:26:14;;;;;;;0.73;0.63;;;;;;;;;;5050758;28;19948;-61
2022/09/18 10:28:40;;;;;;;4.20;1.05;;;;;;;;;;5050617;28;20407;-61
2022/09/18 10:31:10;;;;;;;2.05;0.63;;;;;;;;;;5050980;28;20029;-61
2022/09/18 10:33:37;;;;;;;0.70;0.50;;;;;;;;;;5050505;28;20021;-61
2022/09/18 10:36:08;;;;;;;1.33;0.47;;;21.10;36.20;;;;;;5051143;28;20539;-61
2022/09/18 10:38:36;;;;;;;0.77;0.50;;;21.60;34.40;;;;;;5043283;28;20387;-61
2022/09/18 10:41:22;;;;;;;4.03;0.80;;;21.60;35.20;;;;;;5044015;28;20032;-61
2022/09/18 10:43:53;;;;;;;4.63;0.80;;;;;;;;;;5039094;28;20112;-62
2022/09/18 10:46:30;;;;;;;1.50;0.88;;;21.70;34.30;;;;;;5042101;28;20448;-61
2022/09/18 10:48:57;;;;;;;;;;;21.80;34.10;;;;;;5048485;28;20021;-61
2022/09/18 10:51:27;;;;;;;0.38;0.38;;;21.80;32.10;;;;;;5045483;28;19974;-60
2022/09/18 10:54:01;;;;;;;1.95;0.60;;;;;;;;;;5045783;28;20033;-60
2022/09/18 10:56:27;;;;;;;2.65;0.60;;;;;;;;;;5049917;28;20104;-61
2022/09/18 10:58:53;;;;;;;0.73;0.68;;;;;;;;;;5054104;28;20052;-60
2022/09/18 11:01:19;;;;;;;3.17;1.00;;;21.90;33.20;;;;;;5054536;28;20033;-61
2022/09/18 11:04:00;;;;;;;0.70;0.60;;;22.40;33.00;;;;;;5053726;28;20078;-61
2022/09/18 11:06:28;;;;;;;3.38;0.80;;;22.50;31.50;;;;;;5047645;28;20491;-61
2022/09/18 11:08:57;;;;;;;3.58;1.55;;;22.50;32.30;;;;;;5053956;28;20071;-60
2022/09/18 11:11:33;;;;;;;1.90;0.80;;;22.50;32.40;;;;;;5053582;28;20061;-61
2022/09/18 11:14:02;;;;;;;1.70;0.77;;;22.50;32.00;;;;;;5050275;28;20041;-61
2022/09/18 11:16:35;;;;;;;0.60;0.60;;;22.60;32.20;;;;;;5054357;28;20025;-62
2022/09/18 11:19:34;;;;;;;2.50;0.60;;;22.60;31.10;;;;;;5053735;28;20080;-55
2022/09/18 11:22:03;;;;;;;0.75;0.70;;;22.60;30.90;;;;;;5049749;28;20025;-56
2022/09/18 11:24:32;;;;;;;2.67;0.70;;;22.60;31.40;;;;;;5052393;28;20433;-51
2022/09/18 11:27:15;;;;;;;2.08;0.80;;;22.70;32.00;;;;;;5050779;28;20064;-55
2022/09/18 11:29:41;;;;;;;0.52;0.40;;;;;;;;;;5054079;28;20483;-61
2022/09/18 11:32:28;;;;;;;2.60;0.67;;;22.90;31.20;;;;;;5044379;28;20072;-61
2022/09/18 11:35:00;;;;;;;1.13;0.82;;;23.10;30.20;;;;;;5051957;28;20027;-62
2022/09/18 11:37:35;;;;;;;2.00;1.02;;;23.10;31.30;;;;;;5053225;28;20056;-61
2022/09/18 11:40:07;;;;;;;1.67;0.55;;;23.20;30.40;;;;;;5053526;28;20025;-62
2022/09/18 11:42:40;;;;;;;1.13;0.70;;;;;;;;;;5053939;28;20116;-61
2022/09/18 11:45:19;;;;;;;2.08;0.50;;;;;;;;;;5053180;28;20021;-62
2022/09/18 11:47:57;;;;;;;0.70;0.70;;;;;;;;;;5049741;28;20101;-62
2022/09/18 11:50:24;;;;;;;0.98;0.80;;;;;;;;;;5042637;28;20095;-61
2022/09/18 11:52:55;;;;;;;1.00;0.70;;;;;;;;;;5053220;28;20368;-60
2022/09/18 11:55:25;;;;;;;1.00;0.75;;;;;;;;;;5052890;28;20483;-66
2022/09/18 11:57:54;;;;;;;0.85;0.60;;;;;;;;;;5049802;28;20025;-58
2022/09/18 12:00:25;;;;;;;0.85;0.70;;;;;;;;;;5051550;28;20021;-56
2022/09/18 12:02:57;;;;;;;1.58;0.93;;;;;;;;;;5045296;28;20037;-58
2022/09/18 12:05:27;;;;;;;1.33;1.10;;;23.30;31.20;;;;;;5048026;28;20479;-61
2022/09/18 12:08:26;;;;;;;572.97;299.58;;;24.00;32.50;;;;;;5046266;28;20515;-62
2022/09/18 12:11:03;;;;;;;4.97;1.95;;;24.00;31.10;;;;;;5051289;28;20108;-61
2022/09/18 12:13:39;;;;;;;4.85;1.15;;;24.10;31.20;;;;;;5052703;28;20025;-63
2022/09/18 12:16:46;;;;;;;3.50;0.88;;;24.10;29.70;;;;;;5048987;28;20017;-63
2022/09/18 12:19:21;;;;;;;3.42;1.00;;;24.10;29.30;;;;;;5047018;28;20036;-62
2022/09/18 12:22:03;;;;;;;1.88;1.08;;;24.10;30.00;;;;;;5051908;28;20036;-62
2022/09/18 12:24:29;;;;;;;1.08;0.60;;;24.20;29.50;;;;;;5052015;28;20028;-62
2022/09/18 12:27:00;;;;;;;1.17;0.70;;;24.30;29.30;;;;;;5052134;28;20071;-62
2022/09/18 12:29:34;;;;;;;1.35;0.90;;;24.30;29.20;;;;;;5079971;23;20493;-53
2022/09/18 12:32:25;;;;;;;1.63;0.95;;;24.30;29.50;;;;;;5063609;28;20036;-57
2022/09/18 12:35:15;;;;;;;1.60;0.90;;;24.40;29.40;;;;;;5062119;28;20035;-56
2022/09/18 12:38:18;;;;;;;4.95;1.42;;;24.50;30.30;;;;;;5057870;28;20036;-54
2022/09/18 12:41:14;;;;;;;3.55;0.88;;;24.60;29.40;;;;;;5049154;28;20510;-54
2022/09/18 12:43:58;;;;;;;1.15;0.80;;;24.60;28.70;;;;;;5050978;28;20035;-54
2022/09/18 12:46:36;;;;;;;3.53;0.60;;;24.70;29.80;;;;;;5052639;28;20082;-53
2022/09/18 12:49:07;;;;;;;;;;;24.80;28.50;;;;;;5053003;28;20387;-53
2022/09/18 12:51:44;;;;;;;3.60;0.70;;;24.90;29.00;;;;;;5052976;28;19905;-54
2022/09/18 12:54:55;;;;;;;0.93;0.65;;;25.00;27.60;;;;;;5052356;28;20029;-54
2022/09/18 12:57:45;;;;;;;1.48;1.30;;;25.00;27.90;;;;;;5051811;28;20399;-56
2022/09/18 13:00:15;;;;;;;1.00;1.00;;;25.10;27.40;;;;;;5049724;28;20048;-54
2022/09/18 13:03:01;;;;;;;1.98;0.82;;;25.10;28.60;;;;;;5052575;28;20100;-53
2022/09/18 13:05:33;;;;;;;0.93;0.57;;;25.30;28.20;;;;;;5052014;28;20036;-54
2022/09/18 13:08:10;;;;;;;1.38;0.73;;;25.30;26.80;;;;;;5052057;28;20051;-56
2022/09/18 13:10:46;;;;;;;1.15;0.70;;;25.40;26.80;;;;;;5038842;28;20391;-56
2022/09/18 13:13:32;;;;;;;0.80;0.68;;;25.50;28.10;;;;;;5052397;28;20059;-55
2022/09/18 13:16:04;;;;;;;2.90;0.70;;;25.90;26.10;;;;;;5052213;28;20017;-54
2022/09/18 13:18:38;;;;;;;0.70;0.70;;;26.20;26.90;;;;;;5052118;28;20079;-54
2022/09/18 13:21:18;;;;;;;3.10;1.20;;;26.50;26.60;;;;;;5051806;28;20029;-55
2022/09/18 13:23:46;;;;;;;0.90;0.70;;;26.90;26.60;;;;;;5051922;28;20053;-54
2022/09/18 13:26:13;;;;;;;2.50;0.70;;;27.20;25.70;;;;;;5052060;28;20025;-56
2022/09/18 13:28:41;;;;;;;2.20;0.65;;;27.30;25.40;;;;;;5051792;28;20040;-55
2022/09/18 13:31:23;;;;;;;0.98;0.70;;;27.60;25.10;;;;;;5039965;28;20113;-53
2022/09/18 13:34:15;;;;;;;3.70;0.95;;;28.10;25.50;;;;;;5046204;28;20157;-55
2022/09/18 13:36:43;;;;;;;0.95;0.73;;;28.90;24.90;;;;;;5048834;28;20029;-55
2022/09/18 13:39:25;;;;;;;2.83;0.75;;;29.80;24.40;;;;;;5050493;28;20185;-54
2022/09/18 13:41:56;;;;;;;3.13;0.80;;;30.80;23.30;;;;;;5051965;28;20386;-56